Overview Statistics Trail Chart Weather Telemetry Raw packets
 

This is the latest recevied weather packets stored in our database for station/object WW5JC. If no packets are shown the sender has not sent any weather packets the latest 10 day(s).

<< 1 2 3 4 5 6 >>
Time Temp. Humidity Pressure Rain* Wind** Luminosity Snow
1788625619 33.89° C 56% 1016.9 hPa 0 mm - 550 W/m² -
1788625319 33.89° C 55% 1017 hPa 0 mm - 538 W/m² -
1788625013 33.89° C 56% 1017 hPa 0 mm - 527 W/m² -
1788624711 33.33° C 57% 1017 hPa 0 mm - 507 W/m² -
1788624405 33.33° C 58% 1016.8 hPa 0 mm - 499 W/m² -
1788624104 33.89° C 57% 1016.8 hPa 0 mm - 490 W/m² -
1788623799 33.89° C 57% 1016.9 hPa 0 mm - 480 W/m² -
1788623498 33.33° C 58% 1016.8 hPa 0 mm - 467 W/m² -
1788623197 32.78° C 59% 1016.7 hPa 0 mm - 457 W/m² -
1788622888 33.33° C 59% 1016.8 hPa 0 mm - 444 W/m² -
1788622584 33.33° C 58% 1016.7 hPa 0 mm - 431 W/m² -
1788622278 33.33° C 59% 1016.8 hPa 0 mm - 417 W/m² -
1788621973 33.33° C 57% 1016.9 hPa 0 mm - 404 W/m² -
1788621668 32.78° C 58% 1017 hPa 0 mm - 396 W/m² -
1788621363 32.78° C 60% 1016.9 hPa 0 mm - 378 W/m² -
1788621058 32.22° C 61% 1016.8 hPa 0 mm - 366 W/m² -
1788620753 32.78° C 60% 1016.8 hPa 0 mm - 353 W/m² -
1788620452 31.67° C 63% 1016.8 hPa 0 mm - 341 W/m² -
1788620145 31.67° C 64% 1016.8 hPa 0 mm - 327 W/m² -
1788619844 31.67° C 63% 1016.9 hPa 0 mm - 315 W/m² -
1788619539 31.67° C 64% 1016.9 hPa 0 mm - 300 W/m² -
1788619238 31.67° C 65% 1016.8 hPa 0 mm - 286 W/m² -
1788618937 31.67° C 65% 1016.6 hPa 0 mm - 272 W/m² -
1788618632 31.11° C 67% 1016.8 hPa 0 mm - 259 W/m² -
1788618326 31.11° C 67% 1016.6 hPa 0 mm - 246 W/m² -

* Rain latest hour (hover to see other rain measurements)
** Current wind speed in m/s (hover to see current wind gust speed)